Glenrothes, United Kingdom

9:20 PM GMT on December 28, 2014 (GMT +0000)
Freuchie | Change Station
CLOSE
Current Station
Personal Weather Station
Location: Cupar, FIFE
Elevation: 148 ft
Nearby Weather Stations

Elev 148 ft 56.25 °N, 3.15 °W | Updated 5 seconds ago

Clear
Clear
25.5 °F
Feels Like 26 °F
N
0.1
Wind Variable Wind from SW
Gusts 1.6 mph

Today
High -- | Low -- °F
--% Chance of Precip.
Yesterday
High -- | Low -- °F
Precip. -- in
8:45 AM 3:42 PM
Waxing Crescent, 51% visible
Pressure 30.60 in
Visibility -9999.0 miles
Clouds
Windchill 26 °F
Dew Point 25 °F
Humidity 99%
Rainfall 0.00 in
Snow Depth Not available.
UV Not available.
Pollen Not available.
Air Quality Not available.
Flu Activity Not available.
METAR EGQL 282050Z 25006KT CAVOK M01/M02 Q1036 BLU

More Conditions Fewer Conditions

Pressure 30.60 in
Visibility -9999.0 miles
Clouds
Windchill 26 °F
Dew Point 25 °F
Humidity 99%
Rainfall 0.00 in
Snow Depth Not available.
UV Not available.
Pollen Not available.
Air Quality Not available.
Flu Activity Not available.
METAR EGQL 282050Z 25006KT CAVOK M01/M02 Q1036 BLU

More Conditions Fewer Conditions

10-Day Weather Forecast

Almanac

Astronomy

Dec. 28, 2014 Rise Set
Actual Time
Civil Twilight
Nautical Twilight
Astronomical Twilight
Moon
Length of Visible Light
Length of Day
Tomorrow will be .
, % of the Moon is Illuminated

Today's Extremes

Country Highs Country Lows

Community

WunderPhotos

Upload Photos

1,781,431 photos uploaded!

WunderBlogs® & News

Nearby

Air Quality

  Air Quality AQ Index Pollutant
Not available.

Snow Depth

Station Depth Elevation

Earthquake Activity

City Distance Mag. Time & Date
Minimum magnitude displayed is 2.5.

Coastal Water Temperatures

Place Temperature

Nearby Weather Stations